sensor_id;sensor_type;location;lat;lon;timestamp;pressure;altitude;pressure_sealevel;temperature;humidity
16030;BME280;34770;49.272;11.070;2022-10-16T00:04:42;97574.13;;;13.65;100.00
16030;BME280;34770;49.272;11.070;2022-10-16T00:07:11;97536.97;;;13.34;100.00
16030;BME280;34770;49.272;11.070;2022-10-16T00:09:56;97533.22;;;13.22;100.00
16030;BME280;34770;49.272;11.070;2022-10-16T00:14:59;97604.63;;;13.77;100.00
16030;BME280;34770;49.272;11.070;2022-10-16T00:17:25;97635.31;;;14.04;100.00
16030;BME280;34770;49.272;11.070;2022-10-16T00:19:50;97637.69;;;14.02;100.00
16030;BME280;34770;49.272;11.070;2022-10-16T00:22:15;97628.06;;;13.99;100.00
16030;BME280;34770;49.272;11.070;2022-10-16T00:24:41;97616.78;;;13.92;100.00
16030;BME280;34770;49.272;11.070;2022-10-16T00:27:06;97648.97;;;14.09;100.00
16030;BME280;34770;49.272;11.070;2022-10-16T00:29:31;97642.28;;;13.83;100.00
16030;BME280;34770;49.272;11.070;2022-10-16T00:31:57;97622.22;;;13.78;100.00
16030;BME280;34770;49.272;11.070;2022-10-16T00:34:22;97654.47;;;14.02;100.00
16030;BME280;34770;49.272;11.070;2022-10-16T00:36:47;97641.06;;;13.84;100.00
16030;BME280;34770;49.272;11.070;2022-10-16T00:39:13;97658.47;;;14.01;100.00
16030;BME280;34770;49.272;11.070;2022-10-16T00:41:38;97652.47;;;14.02;100.00
16030;BME280;34770;49.272;11.070;2022-10-16T00:47:09;97652.13;;;14.04;100.00
16030;BME280;34770;49.272;11.070;2022-10-16T00:49:35;97643.16;;;13.91;100.00
16030;BME280;34770;49.272;11.070;2022-10-16T00:52:00;97659.16;;;13.91;100.00
16030;BME280;34770;49.272;11.070;2022-10-16T00:54:28;97649.94;;;13.90;100.00
16030;BME280;34770;49.272;11.070;2022-10-16T00:56:55;97661.25;;;14.01;100.00
16030;BME280;34770;49.272;11.070;2022-10-16T00:59:33;97654.44;;;13.98;100.00
16030;BME280;34770;49.272;11.070;2022-10-16T01:02:00;97658.41;;;13.97;100.00
16030;BME280;34770;49.272;11.070;2022-10-16T01:04:36;97646.53;;;14.04;100.00
16030;BME280;34770;49.272;11.070;2022-10-16T01:07:12;97652.13;;;14.04;100.00
16030;BME280;34770;49.272;11.070;2022-10-16T01:12:52;97660.88;;;14.02;100.00
16030;BME280;34770;49.272;11.070;2022-10-16T01:15:29;97646.75;;;13.92;100.00
16030;BME280;34770;49.272;11.070;2022-10-16T01:18:52;97653.06;;;13.85;100.00
16030;BME280;34770;49.272;11.070;2022-10-16T01:21:07;97652.34;;;13.92;100.00
16030;BME280;34770;49.272;11.070;2022-10-16T01:26:34;97665.59;;;13.95;100.00
16030;BME280;34770;49.272;11.070;2022-10-16T01:29:07;97648.38;;;13.93;100.00
16030;BME280;34770;49.272;11.070;2022-10-16T01:31:36;97659.66;;;14.00;100.00
16030;BME280;34770;49.272;11.070;2022-10-16T01:36:38;97668.03;;;14.00;100.00
16030;BME280;34770;49.272;11.070;2022-10-16T01:39:06;97672.38;;;13.94;100.00
16030;BME280;34770;49.272;11.070;2022-10-16T01:41:38;97675.19;;;13.97;100.00
16030;BME280;34770;49.272;11.070;2022-10-16T01:44:20;97665.50;;;13.87;100.00
16030;BME280;34770;49.272;11.070;2022-10-16T01:46:49;97664.66;;;13.83;100.00
16030;BME280;34770;49.272;11.070;2022-10-16T01:49:17;97674.69;;;13.88;100.00
16030;BME280;34770;49.272;11.070;2022-10-16T01:51:44;97701.53;;;13.93;100.00
16030;BME280;34770;49.272;11.070;2022-10-16T01:54:13;97706.38;;;13.96;100.00
16030;BME280;34770;49.272;11.070;2022-10-16T01:56:40;97701.16;;;13.94;100.00
16030;BME280;34770;49.272;11.070;2022-10-16T01:59:11;97700.34;;;13.94;100.00
16030;BME280;34770;49.272;11.070;2022-10-16T02:01:40;97700.00;;;13.99;100.00
16030;BME280;34770;49.272;11.070;2022-10-16T02:04:20;97704.81;;;13.98;100.00
16030;BME280;34770;49.272;11.070;2022-10-16T02:06:47;97694.25;;;13.88;100.00
16030;BME280;34770;49.272;11.070;2022-10-16T02:09:13;97700.72;;;13.92;100.00
16030;BME280;34770;49.272;11.070;2022-10-16T02:11:40;97681.50;;;13.87;100.00
16030;BME280;34770;49.272;11.070;2022-10-16T02:14:06;97701.56;;;13.96;100.00
16030;BME280;34770;49.272;11.070;2022-10-16T02:16:38;97679.81;;;13.82;100.00
16030;BME280;34770;49.272;11.070;2022-10-16T02:19:04;97675.41;;;13.81;100.00
16030;BME280;34770;49.272;11.070;2022-10-16T02:21:41;97699.91;;;13.92;100.00
16030;BME280;34770;49.272;11.070;2022-10-16T02:26:46;97672.22;;;13.83;100.00
16030;BME280;34770;49.272;11.070;2022-10-16T02:29:16;97691.59;;;13.99;100.00
16030;BME280;34770;49.272;11.070;2022-10-16T02:31:49;97675.91;;;13.87;100.00
16030;BME280;34770;49.272;11.070;2022-10-16T02:34:18;97695.28;;;14.03;100.00
16030;BME280;34770;49.272;11.070;2022-10-16T02:36:47;97697.25;;;14.02;100.00
16030;BME280;34770;49.272;11.070;2022-10-16T02:39:13;97696.50;;;14.06;100.00
16030;BME280;34770;49.272;11.070;2022-10-16T02:41:39;97696.06;;;14.03;100.00
16030;BME280;34770;49.272;11.070;2022-10-16T02:44:04;97692.81;;;14.01;100.00
16030;BME280;34770;49.272;11.070;2022-10-16T02:46:30;97659.09;;;13.87;100.00
16030;BME280;34770;49.272;11.070;2022-10-16T02:48:55;97685.69;;;14.04;100.00
16030;BME280;34770;49.272;11.070;2022-10-16T02:51:20;97686.50;;;14.04;100.00
16030;BME280;34770;49.272;11.070;2022-10-16T02:53:46;97660.28;;;13.86;100.00
16030;BME280;34770;49.272;11.070;2022-10-16T02:56:11;97679.22;;;14.00;100.00
16030;BME280;34770;49.272;11.070;2022-10-16T02:58:36;97676.88;;;14.02;100.00
16030;BME280;34770;49.272;11.070;2022-10-16T03:01:02;97673.59;;;13.96;100.00
16030;BME280;34770;49.272;11.070;2022-10-16T03:03:27;97659.91;;;13.87;100.00
16030;BME280;34770;49.272;11.070;2022-10-16T03:05:53;97675.16;;;13.94;100.00
16030;BME280;34770;49.272;11.070;2022-10-16T03:08:18;97687.66;;;14.03;100.00
16030;BME280;34770;49.272;11.070;2022-10-16T03:10:48;97669.69;;;14.04;100.00
16030;BME280;34770;49.272;11.070;2022-10-16T03:13:14;97669.69;;;14.04;100.00
16030;BME280;34770;49.272;11.070;2022-10-16T03:15:39;97672.94;;;14.07;100.00
16030;BME280;34770;49.272;11.070;2022-10-16T03:18:04;97679.75;;;14.09;100.00
16030;BME280;34770;49.272;11.070;2022-10-16T03:20:30;97683.72;;;14.08;100.00
16030;BME280;34770;49.272;11.070;2022-10-16T03:22:55;97696.19;;;14.14;100.00
16030;BME280;34770;49.272;11.070;2022-10-16T03:25:20;97695.34;;;14.10;100.00
16030;BME280;34770;49.272;11.070;2022-10-16T03:27:46;97700.53;;;14.08;100.00
16030;BME280;34770;49.272;11.070;2022-10-16T03:30:11;97692.88;;;14.05;100.00
16030;BME280;34770;49.272;11.070;2022-10-16T03:32:37;97671.47;;;13.86;100.00
16030;BME280;34770;49.272;11.070;2022-10-16T03:35:02;97672.66;;;13.85;100.00
16030;BME280;34770;49.272;11.070;2022-10-16T03:37:28;97696.03;;;14.00;100.00
16030;BME280;34770;49.272;11.070;2022-10-16T03:39:53;97669.28;;;13.72;100.00
16030;BME280;34770;49.272;11.070;2022-10-16T03:42:18;97675.81;;;13.80;100.00
16030;BME280;34770;49.272;11.070;2022-10-16T03:44:44;97680.19;;;13.81;100.00
16030;BME280;34770;49.272;11.070;2022-10-16T03:47:09;97693.72;;;13.75;100.00
16030;BME280;34770;49.272;11.070;2022-10-16T03:49:35;97714.72;;;13.92;100.00
16030;BME280;34770;49.272;11.070;2022-10-16T03:52:00;97704.56;;;13.80;100.00
16030;BME280;34770;49.272;11.070;2022-10-16T03:54:25;97707.41;;;13.84;100.00
16030;BME280;34770;49.272;11.070;2022-10-16T03:56:51;97721.34;;;13.80;100.00
16030;BME280;34770;49.272;11.070;2022-10-16T03:59:16;97712.53;;;13.78;100.00
16030;BME280;34770;49.272;11.070;2022-10-16T04:01:42;97703.72;;;13.76;100.00
16030;BME280;34770;49.272;11.070;2022-10-16T04:04:07;97726.25;;;13.87;100.00
16030;BME280;34770;49.272;11.070;2022-10-16T04:06:32;97724.53;;;13.79;100.00
16030;BME280;34770;49.272;11.070;2022-10-16T04:08:58;97726.88;;;13.77;100.00
16030;BME280;34770;49.272;11.070;2022-10-16T04:11:23;97723.34;;;13.80;100.00
16030;BME280;34770;49.272;11.070;2022-10-16T04:13:48;97735.81;;;13.86;100.00
16030;BME280;34770;49.272;11.070;2022-10-16T04:16:14;97730.63;;;13.88;100.00
16030;BME280;34770;49.272;11.070;2022-10-16T04:18:39;97729.41;;;13.85;100.00
16030;BME280;34770;49.272;11.070;2022-10-16T04:21:05;97704.47;;;13.73;100.00
16030;BME280;34770;49.272;11.070;2022-10-16T04:23:31;97725.47;;;13.90;100.00
16030;BME280;34770;49.272;11.070;2022-10-16T04:25:56;97725.38;;;13.83;100.00
16030;BME280;34770;49.272;11.070;2022-10-16T04:28:21;97695.97;;;13.66;100.00
16030;BME280;34770;49.272;11.070;2022-10-16T04:30:47;97727.38;;;13.82;100.00
16030;BME280;34770;49.272;11.070;2022-10-16T04:33:12;97722.69;;;13.90;100.00
16030;BME280;34770;49.272;11.070;2022-10-16T04:35:38;97714.09;;;13.76;100.00
16030;BME280;34770;49.272;11.070;2022-10-16T04:38:03;97708.09;;;13.77;100.00
16030;BME280;34770;49.272;11.070;2022-10-16T04:40:29;97706.88;;;13.75;100.00
16030;BME280;34770;49.272;11.070;2022-10-16T04:42:58;97706.09;;;13.74;100.00
16030;BME280;34770;49.272;11.070;2022-10-16T04:45:23;97701.34;;;13.78;100.00
16030;BME280;34770;49.272;11.070;2022-10-16T04:47:48;97713.00;;;13.84;100.00
16030;BME280;34770;49.272;11.070;2022-10-16T04:50:14;97722.88;;;13.74;100.00
16030;BME280;34770;49.272;11.070;2022-10-16T04:52:39;97723.00;;;13.85;100.00
16030;BME280;34770;49.272;11.070;2022-10-16T04:55:05;97687.09;;;13.60;100.00
16030;BME280;34770;49.272;11.070;2022-10-16T04:57:30;97725.38;;;13.83;100.00
16030;BME280;34770;49.272;11.070;2022-10-16T04:59:56;97722.09;;;13.77;100.00
16030;BME280;34770;49.272;11.070;2022-10-16T05:02:21;97730.47;;;13.77;100.00
16030;BME280;34770;49.272;11.070;2022-10-16T05:04:47;97742.78;;;13.69;100.00
16030;BME280;34770;49.272;11.070;2022-10-16T05:07:12;97738.59;;;13.55;100.00
16030;BME280;34770;49.272;11.070;2022-10-16T05:09:37;97732.59;;;13.57;100.00
16030;BME280;34770;49.272;11.070;2022-10-16T05:12:04;97746.75;;;13.68;100.00
16030;BME280;34770;49.272;11.070;2022-10-16T05:14:30;97749.09;;;13.66;100.00
16030;BME280;34770;49.272;11.070;2022-10-16T05:16:56;97744.41;;;13.70;100.00
16030;BME280;34770;49.272;11.070;2022-10-16T05:19:21;97749.44;;;13.61;100.00
16030;BME280;34770;49.272;11.070;2022-10-16T05:21:46;97750.72;;;13.67;100.00
16030;BME280;34770;49.272;11.070;2022-10-16T05:24:12;97745.31;;;13.51;100.00
16030;BME280;34770;49.272;11.070;2022-10-16T05:26:37;97752.25;;;13.61;100.00
16030;BME280;34770;49.272;11.070;2022-10-16T05:29:02;97751.06;;;13.62;100.00
16030;BME280;34770;49.272;11.070;2022-10-16T05:31:28;97755.53;;;13.66;100.00
16030;BME280;34770;49.272;11.070;2022-10-16T05:33:58;97733.00;;;13.55;100.00
16030;BME280;34770;49.272;11.070;2022-10-16T05:36:24;97763.47;;;13.64;100.00
16030;BME280;34770;49.272;11.070;2022-10-16T05:38:50;97753.78;;;13.58;100.00
16030;BME280;34770;49.272;11.070;2022-10-16T05:41:16;97759.75;;;13.56;100.00
16030;BME280;34770;49.272;11.070;2022-10-16T05:43:46;97781.81;;;13.62;100.00
16030;BME280;34770;49.272;11.070;2022-10-16T05:46:12;97773.31;;;13.54;100.00
16030;BME280;34770;49.272;11.070;2022-10-16T05:48:37;97785.69;;;13.53;100.00
16030;BME280;34770;49.272;11.070;2022-10-16T05:51:05;97784.91;;;13.56;100.00
16030;BME280;34770;49.272;11.070;2022-10-16T05:53:33;97784.56;;;13.58;100.00
16030;BME280;34770;49.272;11.070;2022-10-16T05:56:00;97788.97;;;13.59;100.00
16030;BME280;34770;49.272;11.070;2022-10-16T05:58:29;97804.13;;;13.58;100.00
16030;BME280;34770;49.272;11.070;2022-10-16T06:01:01;97806.53;;;13.60;100.00
16030;BME280;34770;49.272;11.070;2022-10-16T06:03:27;97802.94;;;13.59;100.00
16030;BME280;34770;49.272;11.070;2022-10-16T06:05:52;97805.41;;;13.64;100.00
16030;BME280;34770;49.272;11.070;2022-10-16T06:08:19;97811.81;;;13.65;100.00
16030;BME280;34770;49.272;11.070;2022-10-16T06:10:46;97799.28;;;13.55;100.00
16030;BME280;34770;49.272;11.070;2022-10-16T06:13:13;97790.56;;;13.60;100.00
16030;BME280;34770;49.272;11.070;2022-10-16T06:15:41;97676.84;;;12.91;100.00
16030;BME280;34770;49.272;11.070;2022-10-16T06:18:16;97708.25;;;13.07;100.00
16030;BME280;34770;49.272;11.070;2022-10-16T06:20:52;97718.38;;;13.16;100.00
16030;BME280;34770;49.272;11.070;2022-10-16T06:23:23;97716.38;;;13.16;100.00
16030;BME280;34770;49.272;11.070;2022-10-16T06:25:50;97696.00;;;13.16;100.00
16030;BME280;34770;49.272;11.070;2022-10-16T06:28:16;97712.34;;;13.14;100.00
16030;BME280;34770;49.272;11.070;2022-10-16T06:30:43;97713.38;;;13.29;100.00
16030;BME280;34770;49.272;11.070;2022-10-16T06:40:58;97811.22;;;14.36;100.00
16030;BME280;34770;49.272;11.070;2022-10-16T06:43:25;97816.50;;;14.41;100.00
16030;BME280;34770;49.272;11.070;2022-10-16T06:45:55;97709.38;;;13.80;100.00
16030;BME280;34770;49.272;11.070;2022-10-16T06:48:22;97748.00;;;14.01;100.00
16030;BME280;34770;49.272;11.070;2022-10-16T06:51:14;97816.97;;;14.47;100.00
16030;BME280;34770;49.272;11.070;2022-10-16T06:53:44;97761.66;;;14.06;100.00
16030;BME280;34770;49.272;11.070;2022-10-16T06:56:22;97786.53;;;14.11;100.00
16030;BME280;34770;49.272;11.070;2022-10-16T06:58:51;97718.97;;;13.82;100.00
16030;BME280;34770;49.272;11.070;2022-10-16T07:01:22;97743.53;;;13.96;100.00
16030;BME280;34770;49.272;11.070;2022-10-16T07:03:53;97835.09;;;14.57;100.00
16030;BME280;34770;49.272;11.070;2022-10-16T07:06:26;97809.72;;;14.42;100.00
16030;BME280;34770;49.272;11.070;2022-10-16T07:08:52;97855.13;;;14.59;100.00
16030;BME280;34770;49.272;11.070;2022-10-16T07:11:21;97824.13;;;14.44;100.00
16030;BME280;34770;49.272;11.070;2022-10-16T08:21:34;97807.53;;;14.93;100.00
16030;BME280;34770;49.272;11.070;2022-10-16T08:24:01;97908.00;;;15.70;100.00
16030;BME280;34770;49.272;11.070;2022-10-16T08:26:27;97885.06;;;15.57;100.00
16030;BME280;34770;49.272;11.070;2022-10-16T08:29:01;97912.88;;;15.76;100.00
16030;BME280;34770;49.272;11.070;2022-10-16T08:31:32;97818.22;;;15.21;100.00
16030;BME280;34770;49.272;11.070;2022-10-16T08:36:37;97826.44;;;15.44;100.00
16030;BME280;34770;49.272;11.070;2022-10-16T08:39:04;97899.94;;;16.09;100.00
16030;BME280;34770;49.272;11.070;2022-10-16T08:41:39;97914.53;;;16.30;100.00
16030;BME280;34770;49.272;11.070;2022-10-16T08:44:39;97856.72;;;16.21;100.00
16030;BME280;34770;49.272;11.070;2022-10-16T08:47:21;97920.06;;;16.85;100.00
16030;BME280;34770;49.272;11.070;2022-10-16T08:50:21;97865.38;;;16.61;100.00
16030;BME280;34770;49.272;11.070;2022-10-16T08:52:44;97849.69;;;16.56;100.00
16030;BME280;34770;49.272;11.070;2022-10-16T08:57:53;97922.06;;;16.88;100.00
16030;BME280;34770;49.272;11.070;2022-10-16T09:00:21;97843.16;;;16.34;100.00
16030;BME280;34770;49.272;11.070;2022-10-16T09:31:22;97885.31;;;17.44;100.00
16030;BME280;34770;49.272;11.070;2022-10-16T09:33:57;97951.69;;;17.60;100.00
16030;BME280;34770;49.272;11.070;2022-10-16T09:36:25;97882.81;;;17.06;100.00
16030;BME280;34770;49.272;11.070;2022-10-16T09:39:08;97884.44;;;17.04;100.00
16030;BME280;34770;49.272;11.070;2022-10-16T09:41:37;97863.00;;;16.78;100.00
16030;BME280;34770;49.272;11.070;2022-10-16T09:44:14;97858.22;;;16.82;100.00
16030;BME280;34770;49.272;11.070;2022-10-16T09:46:44;97871.94;;;16.94;100.00
16030;BME280;34770;49.272;11.070;2022-10-16T09:49:22;97860.31;;;17.03;100.00
16030;BME280;34770;49.272;11.070;2022-10-16T09:52:03;97870.84;;;17.31;100.00
16030;BME280;34770;49.272;11.070;2022-10-16T09:57:10;97916.78;;;18.15;100.00
16030;BME280;34770;49.272;11.070;2022-10-16T09:59:50;97859.25;;;17.80;100.00
16030;BME280;34770;49.272;11.070;2022-10-16T11:41:09;97906.47;;;20.69;81.10
16030;BME280;34770;49.272;11.070;2022-10-16T11:46:35;97932.47;;;21.88;80.84
16030;BME280;34770;49.272;11.070;2022-10-16T11:49:08;97965.19;;;23.11;77.55
16030;BME280;34770;49.272;11.070;2022-10-16T11:51:39;97974.25;;;23.26;74.01
16030;BME280;34770;49.272;11.070;2022-10-16T11:56:40;97965.34;;;23.45;71.74
16030;BME280;34770;49.272;11.070;2022-10-16T12:09:40;97947.06;;;23.66;68.61
16030;BME280;34770;49.272;11.070;2022-10-16T12:12:38;97965.00;;;23.79;67.58
16030;BME280;34770;49.272;11.070;2022-10-16T12:15:24;97970.63;;;23.83;67.17
16030;BME280;34770;49.272;11.070;2022-10-16T12:17:50;97958.25;;;24.26;66.18
16030;BME280;34770;49.272;11.070;2022-10-16T12:22:49;97959.13;;;24.56;65.62
16030;BME280;34770;49.272;11.070;2022-10-16T12:25:26;97969.81;;;23.25;67.38
16030;BME280;34770;49.272;11.070;2022-10-16T12:27:59;97973.03;;;22.84;70.06
16030;BME280;34770;49.272;11.070;2022-10-16T12:30:27;97974.72;;;23.01;69.38
16030;BME280;34770;49.272;11.070;2022-10-16T12:33:02;97966.63;;;23.00;68.97
16030;BME280;34770;49.272;11.070;2022-10-16T13:04:22;97974.19;;;22.86;68.54
16030;BME280;34770;49.272;11.070;2022-10-16T13:18:05;97982.38;;;25.00;60.45
16030;BME280;34770;49.272;11.070;2022-10-16T13:23:44;97977.00;;;25.48;60.19
16030;BME280;34770;49.272;11.070;2022-10-16T13:29:05;97984.28;;;24.08;62.22
16030;BME280;34770;49.272;11.070;2022-10-16T13:31:32;97974.22;;;24.86;60.35
16030;BME280;34770;49.272;11.070;2022-10-16T13:33:59;97974.28;;;25.96;57.82
16030;BME280;34770;49.272;11.070;2022-10-16T13:36:51;97973.13;;;26.58;55.93
16030;BME280;34770;49.272;11.070;2022-10-16T13:39:27;97965.44;;;26.81;53.96
16030;BME280;34770;49.272;11.070;2022-10-16T13:44:39;97949.88;;;28.34;51.14
16030;BME280;34770;49.272;11.070;2022-10-16T13:47:10;97968.34;;;28.42;51.69
16030;BME280;34770;49.272;11.070;2022-10-16T13:49:40;97952.31;;;27.06;51.39
16030;BME280;34770;49.272;11.070;2022-10-16T13:52:05;97979.53;;;27.55;51.69
16030;BME280;34770;49.272;11.070;2022-10-16T13:54:30;97960.66;;;27.58;50.28
16030;BME280;34770;49.272;11.070;2022-10-16T13:56:56;97976.47;;;27.49;49.36
16030;BME280;34770;49.272;11.070;2022-10-16T13:59:35;97951.25;;;28.11;48.48
16030;BME280;34770;49.272;11.070;2022-10-16T14:02:11;97973.22;;;27.60;49.60
16030;BME280;34770;49.272;11.070;2022-10-16T14:04:40;97986.41;;;26.26;52.93
16030;BME280;34770;49.272;11.070;2022-10-16T14:07:05;97982.22;;;25.50;55.55
16030;BME280;34770;49.272;11.070;2022-10-16T14:09:31;97974.16;;;24.24;58.69
16030;BME280;34770;49.272;11.070;2022-10-16T14:12:02;97987.75;;;23.99;59.58
16030;BME280;34770;49.272;11.070;2022-10-16T14:14:34;97972.31;;;23.60;62.89
16030;BME280;34770;49.272;11.070;2022-10-16T14:17:01;98007.34;;;23.94;62.22
16030;BME280;34770;49.272;11.070;2022-10-16T14:19:29;98002.50;;;24.27;65.79
16030;BME280;34770;49.272;11.070;2022-10-16T14:21:56;97984.63;;;25.22;58.73
16030;BME280;34770;49.272;11.070;2022-10-16T14:24:27;97991.41;;;26.48;54.80
16030;BME280;34770;49.272;11.070;2022-10-16T14:26:56;97992.78;;;27.27;52.90
16030;BME280;34770;49.272;11.070;2022-10-16T14:29:24;97989.88;;;27.62;51.88
16030;BME280;34770;49.272;11.070;2022-10-16T14:32:20;97991.88;;;26.34;55.50
16030;BME280;34770;49.272;11.070;2022-10-16T14:34:53;98000.56;;;26.43;56.45
16030;BME280;34770;49.272;11.070;2022-10-16T14:37:27;97972.88;;;26.66;56.68
16030;BME280;34770;49.272;11.070;2022-10-16T14:39:54;98001.66;;;27.95;51.93
16030;BME280;34770;49.272;11.070;2022-10-16T14:42:21;98006.03;;;28.50;52.49
16030;BME280;34770;49.272;11.070;2022-10-16T14:44:50;98001.81;;;27.92;56.31
16030;BME280;34770;49.272;11.070;2022-10-16T14:47:22;98004.78;;;26.38;57.42
16030;BME280;34770;49.272;11.070;2022-10-16T14:49:51;97993.38;;;25.44;62.26
16030;BME280;34770;49.272;11.070;2022-10-16T14:52:18;97974.97;;;24.24;65.27
16030;BME280;34770;49.272;11.070;2022-10-16T14:54:48;98018.28;;;23.75;64.99
16030;BME280;34770;49.272;11.070;2022-10-16T14:57:18;97978.94;;;22.93;71.69
16030;BME280;34770;49.272;11.070;2022-10-16T14:59:44;98014.03;;;22.79;77.13
16030;BME280;34770;49.272;11.070;2022-10-16T15:02:30;98014.22;;;22.68;75.76
16030;BME280;34770;49.272;11.070;2022-10-16T15:04:56;98012.72;;;22.36;82.38
16030;BME280;34770;49.272;11.070;2022-10-16T15:07:23;98023.41;;;21.97;86.21
16030;BME280;34770;49.272;11.070;2022-10-16T15:09:48;98019.47;;;21.60;91.43
16030;BME280;34770;49.272;11.070;2022-10-16T15:12:14;98026.97;;;21.40;92.74
16030;BME280;34770;49.272;11.070;2022-10-16T15:14:39;98017.94;;;21.17;95.40
16030;BME280;34770;49.272;11.070;2022-10-16T15:17:07;98019.66;;;21.08;87.19
16030;BME280;34770;49.272;11.070;2022-10-16T15:19:33;97966.69;;;20.70;89.91
16030;BME280;34770;49.272;11.070;2022-10-16T15:21:59;98013.84;;;20.84;91.11
16030;BME280;34770;49.272;11.070;2022-10-16T15:24:32;98032.53;;;20.67;95.93
16030;BME280;34770;49.272;11.070;2022-10-16T15:27:08;98021.91;;;20.36;97.61
16030;BME280;34770;49.272;11.070;2022-10-16T15:39:54;98038.91;;;19.58;100.00
16030;BME280;34770;49.272;11.070;2022-10-16T18:09:53;98039.44;;;16.02;100.00
16030;BME280;34770;49.272;11.070;2022-10-16T22:36:08;98298.28;;;12.93;100.00
16030;BME280;34770;49.272;11.070;2022-10-16T22:38:35;98262.09;;;12.69;100.00
16030;BME280;34770;49.272;11.070;2022-10-16T22:41:03;98272.09;;;12.70;100.00
16030;BME280;34770;49.272;11.070;2022-10-16T22:43:28;98258.31;;;12.61;100.00
16030;BME280;34770;49.272;11.070;2022-10-16T22:45:54;98257.31;;;12.69;100.00
16030;BME280;34770;49.272;11.070;2022-10-16T22:48:20;98297.16;;;12.82;100.00
16030;BME280;34770;49.272;11.070;2022-10-16T22:50:48;98258.63;;;12.59;100.00
16030;BME280;34770;49.272;11.070;2022-10-16T22:53:14;98313.41;;;12.92;100.00
16030;BME280;34770;49.272;11.070;2022-10-16T22:55:39;98267.47;;;12.61;100.00
16030;BME280;34770;49.272;11.070;2022-10-16T22:58:04;98246.44;;;12.36;100.00
16030;BME280;34770;49.272;11.070;2022-10-16T23:00:30;98300.50;;;12.72;100.00
16030;BME280;34770;49.272;11.070;2022-10-16T23:02:58;98296.78;;;12.68;100.00
16030;BME280;34770;49.272;11.070;2022-10-16T23:05:24;98298.75;;;12.67;100.00
16030;BME280;34770;49.272;11.070;2022-10-16T23:07:49;98278.25;;;12.47;100.00
16030;BME280;34770;49.272;11.070;2022-10-16T23:10:14;98262.38;;;12.35;100.00
16030;BME280;34770;49.272;11.070;2022-10-16T23:12:40;98273.09;;;12.33;100.00
16030;BME280;34770;49.272;11.070;2022-10-16T23:15:05;98260.41;;;12.36;100.00
16030;BME280;34770;49.272;11.070;2022-10-16T23:17:31;98289.41;;;12.47;100.00
16030;BME280;34770;49.272;11.070;2022-10-16T23:19:56;98274.94;;;12.41;100.00
16030;BME280;34770;49.272;11.070;2022-10-16T23:22:21;98302.88;;;12.57;100.00
16030;BME280;34770;49.272;11.070;2022-10-16T23:24:47;98299.69;;;12.43;100.00
16030;BME280;34770;49.272;11.070;2022-10-16T23:27:12;98291.41;;;12.47;100.00
16030;BME280;34770;49.272;11.070;2022-10-16T23:29:37;98318.00;;;12.56;100.00
16030;BME280;34770;49.272;11.070;2022-10-16T23:32:03;98297.69;;;12.43;100.00
16030;BME280;34770;49.272;11.070;2022-10-16T23:34:28;98276.75;;;12.21;100.00
16030;BME280;34770;49.272;11.070;2022-10-16T23:36:56;98299.19;;;12.25;100.00
16030;BME280;34770;49.272;11.070;2022-10-16T23:39:22;98311.34;;;12.33;100.00
16030;BME280;34770;49.272;11.070;2022-10-16T23:41:47;98278.31;;;12.06;100.00
16030;BME280;34770;49.272;11.070;2022-10-16T23:44:12;98331.25;;;12.31;100.00
16030;BME280;34770;49.272;11.070;2022-10-16T23:46:38;98326.25;;;12.24;100.00
16030;BME280;34770;49.272;11.070;2022-10-16T23:49:04;98289.00;;;12.04;100.00
16030;BME280;34770;49.272;11.070;2022-10-16T23:51:32;98307.69;;;12.16;100.00
16030;BME280;34770;49.272;11.070;2022-10-16T23:53:57;98267.84;;;11.91;100.00
16030;BME280;34770;49.272;11.070;2022-10-16T23:56:23;98328.00;;;12.29;100.00
16030;BME280;34770;49.272;11.070;2022-10-16T23:58:48;98314.69;;;12.10;100.00
